Time;durP1;ratioP1;P1;durP2;ratioP2;P2;SDS_P1;SDS_P2;PMS_P1;PMS_P2;Temp;Humidity;BMP_temperature;BMP_pressure;BME280_temperature;BME280_humidity;BME280_pressure;Samples;Min_cycle;Max_cycle;Signal;HPM_P1;HPM_P2
2021/03/23 00:01:31;;;;;;;10.67;9.20;;;8.10;86.90;;;;;;10534113;28;20216;-78
2021/03/23 00:06:33;;;;;;;12.63;9.33;;;8.10;86.70;;;;;;10525018;28;20251;-78
2021/03/23 00:11:36;;;;;;;10.30;9.23;;;8.10;87.10;;;;;;10526802;28;20192;-78
2021/03/23 00:16:41;;;;;;;14.70;9.03;;;8.00;87.10;;;;;;10523747;28;20223;-78
2021/03/23 00:21:43;;;;;;;11.83;9.37;;;8.00;86.80;;;;;;10506995;28;20221;-78
2021/03/23 00:26:45;;;;;;;9.90;8.63;;;8.00;86.90;;;;;;10523428;28;20312;-78
2021/03/23 00:31:47;;;;;;;13.13;9.10;;;8.00;88.00;;;;;;10538178;28;20661;-78
2021/03/23 00:36:49;;;;;;;11.27;8.50;;;7.90;87.80;;;;;;10539197;28;20302;-78
2021/03/23 00:41:50;;;;;;;12.37;9.27;;;8.00;87.50;;;;;;10539635;28;20218;-78
2021/03/23 00:46:53;;;;;;;11.53;9.57;;;8.00;87.90;;;;;;10538445;28;20600;-78
2021/03/23 00:51:55;;;;;;;11.10;9.40;;;8.00;88.00;;;;;;10538468;28;20203;-78
2021/03/23 00:56:57;;;;;;;12.07;9.27;;;8.00;87.80;;;;;;10539195;28;20228;-78
2021/03/23 01:01:59;;;;;;;12.17;9.73;;;8.00;88.00;;;;;;10538239;28;20211;-78
2021/03/23 01:07:01;;;;;;;13.07;10.73;;;8.00;88.30;;;;;;10540708;28;20228;-78
2021/03/23 01:12:03;;;;;;;15.47;11.07;;;7.90;88.70;;;;;;10520401;28;20196;-78
2021/03/23 01:17:07;;;;;;;13.07;9.97;;;7.90;88.90;;;;;;10537699;28;20250;-78
2021/03/23 01:22:08;;;;;;;11.60;10.27;;;7.90;88.80;;;;;;10538311;28;20709;-78
2021/03/23 01:27:10;;;;;;;13.57;10.10;;;7.90;88.80;;;;;;10537418;28;20223;-78
2021/03/23 01:32:13;;;;;;;13.50;10.93;;;7.90;88.90;;;;;;10537162;28;20192;-78
2021/03/23 01:37:15;;;;;;;12.10;10.30;;;7.90;89.00;;;;;;10537732;28;20630;-78
2021/03/23 01:42:19;;;;;;;13.00;10.10;;;7.90;89.00;;;;;;10537082;28;20276;-78
2021/03/23 01:47:22;;;;;;;13.37;10.70;;;7.90;89.10;;;;;;10538026;28;20707;-78
2021/03/23 01:52:27;;;;;;;13.13;10.70;;;7.90;89.10;;;;;;10539772;28;20201;-78
2021/03/23 01:57:31;;;;;;;13.53;11.20;;;7.90;89.10;;;;;;10537191;28;20216;-78
2021/03/23 02:02:34;;;;;;;14.63;12.00;;;7.90;89.30;;;;;;10530638;28;20227;-78
2021/03/23 02:07:35;;;;;;;19.33;14.03;;;7.90;89.20;;;;;;10535393;28;20302;-78
2021/03/23 02:12:38;;;;;;;17.77;14.60;;;7.80;89.90;;;;;;10536924;28;20188;-78
2021/03/23 02:17:40;;;;;;;20.77;16.57;;;7.80;90.00;;;;;;10534560;28;20243;-78
2021/03/23 02:22:45;;;;;;;19.80;14.90;;;7.80;90.10;;;;;;10535687;28;20674;-78
2021/03/23 02:27:47;;;;;;;20.87;15.40;;;7.80;90.40;;;;;;10535119;28;20235;-78
2021/03/23 02:32:48;;;;;;;21.87;18.10;;;7.80;90.40;;;;;;10535450;28;20227;-78
2021/03/23 02:37:51;;;;;;;25.43;18.27;;;7.80;90.30;;;;;;10533596;28;20310;-78
2021/03/23 02:42:52;;;;;;;24.50;17.90;;;7.80;90.60;;;;;;10534945;28;20322;-78
2021/03/23 02:47:54;;;;;;;22.73;18.50;;;7.80;90.50;;;;;;10534419;28;20298;-78
2021/03/23 02:52:56;;;;;;;24.90;20.03;;;7.80;90.90;;;;;;10538871;28;20203;-78
2021/03/23 02:57:58;;;;;;;25.90;18.60;;;7.80;90.70;;;;;;10543222;28;20304;-78
2021/03/23 03:03:00;;;;;;;23.50;17.73;;;7.80;90.60;;;;;;10542707;28;20219;-78
2021/03/23 03:08:03;;;;;;;25.53;19.10;;;7.90;90.50;;;;;;10540849;28;20244;-78
2021/03/23 03:13:05;;;;;;;21.40;18.37;;;7.90;90.50;;;;;;10542137;28;20200;-78
2021/03/23 03:18:06;;;;;;;24.90;19.43;;;7.90;90.60;;;;;;10542414;28;20211;-78
2021/03/23 03:23:09;;;;;;;24.60;19.60;;;7.80;90.70;;;;;;10540859;28;20219;-78
2021/03/23 03:28:10;;;;;;;25.13;18.07;;;7.80;90.50;;;;;;10541095;28;20307;-78
2021/03/23 03:33:15;;;;;;;28.17;20.37;;;7.80;90.70;;;;;;10540342;28;20204;-78
2021/03/23 03:38:20;;;;;;;26.63;20.07;;;7.80;90.60;;;;;;10523182;28;20567;-78
2021/03/23 03:43:24;;;;;;;26.90;19.00;;;7.80;90.50;;;;;;10541155;28;20322;-78
2021/03/23 03:48:26;;;;;;;25.73;18.93;;;7.80;90.40;;;;;;10540421;28;20333;-78
2021/03/23 03:53:28;;;;;;;24.80;19.00;;;7.70;90.40;;;;;;10539291;28;20274;-78
2021/03/23 03:58:30;;;;;;;23.90;19.30;;;7.70;90.70;;;;;;10541285;28;20556;-78
2021/03/23 04:03:32;;;;;;;23.43;19.23;;;7.70;90.90;;;;;;10522609;28;20738;-78
2021/03/23 04:08:37;;;;;;;27.80;19.40;;;7.70;90.90;;;;;;10539780;28;20218;-78
2021/03/23 04:13:39;;;;;;;24.27;20.53;;;7.70;90.70;;;;;;10538828;28;20215;-78
2021/03/23 04:18:41;;;;;;;26.17;20.20;;;7.80;91.20;;;;;;10540665;28;20192;-78
2021/03/23 04:23:43;;;;;;;25.80;19.10;;;7.80;90.70;;;;;;10539264;28;20626;-78
2021/03/23 04:28:45;;;;;;;25.67;19.20;;;7.80;90.80;;;;;;10540261;28;20204;-78
2021/03/23 04:33:47;;;;;;;25.13;20.03;;;7.80;90.40;;;;;;10539233;28;20235;-78
2021/03/23 04:38:49;;;;;;;23.50;18.80;;;7.80;90.20;;;;;;10539471;28;20200;-78
2021/03/23 04:43:52;;;;;;;24.30;19.40;;;7.80;90.80;;;;;;10539286;28;20215;-78
2021/03/23 04:48:54;;;;;;;26.43;20.17;;;7.80;90.70;;;;;;10538867;28;20204;-78
2021/03/23 04:54:02;;;;;;;28.30;20.53;;;7.80;90.60;;;;;;10538035;28;20635;-78
2021/03/23 04:59:04;;;;;;;30.10;19.80;;;7.80;90.70;;;;;;10534024;28;20290;-78
2021/03/23 05:04:11;;;;;;;25.87;21.30;;;7.80;90.30;;;;;;10535702;28;20588;-78
2021/03/23 05:09:14;;;;;;;24.03;18.13;;;7.80;90.60;;;;;;10538159;28;20267;-78
2021/03/23 05:14:15;;;;;;;24.60;18.60;;;7.80;90.60;;;;;;10537871;28;20306;-78
2021/03/23 05:19:17;;;;;;;24.97;19.70;;;7.80;90.50;;;;;;10536534;28;20233;-78
2021/03/23 05:24:19;;;;;;;25.13;18.93;;;7.80;91.00;;;;;;10537279;28;20231;-78
2021/03/23 05:29:21;;;;;;;26.33;19.87;;;7.80;90.50;;;;;;10537379;28;20196;-78
2021/03/23 05:34:23;;;;;;;27.10;19.03;;;7.90;90.70;;;;;;10537055;28;20239;-78
2021/03/23 05:39:25;;;;;;;25.30;19.57;;;7.90;90.50;;;;;;10513390;28;20225;-78
2021/03/23 05:44:55;;;;;;;28.40;19.20;;;7.90;90.70;;;;;;10531502;28;20302;-78
2021/03/23 05:50:01;;;;;;;24.10;18.93;;;7.90;91.10;;;;;;10535124;28;20183;-78
2021/03/23 05:55:16;;;;;;;26.17;19.80;;;7.90;90.90;;;;;;10521051;28;20684;-78
2021/03/23 06:00:23;;;;;;;29.33;20.20;;;7.90;90.60;;;;;;10531579;28;20321;-79
2021/03/23 06:05:37;;;;;;;29.40;19.73;;;7.90;90.50;;;;;;10520628;28;20298;-79
2021/03/23 06:10:40;;;;;;;25.07;19.60;;;7.90;90.50;;;;;;10539094;28;20260;-79
2021/03/23 06:15:52;;;;;;;27.67;19.93;;;7.90;90.50;;;;;;10540745;28;20247;-79
2021/03/23 06:21:00;;;;;;;28.57;20.17;;;7.90;90.80;;;;;;10539198;28;20245;-79
2021/03/23 06:26:08;;;;;;;27.47;20.73;;;7.90;90.60;;;;;;10544980;28;20302;-78
2021/03/23 06:31:30;;;;;;;30.10;23.17;;;7.90;90.80;;;;;;10548433;28;20719;-79
2021/03/23 06:36:32;;;;;;;25.50;19.97;;;8.00;90.60;;;;;;10548408;28;20302;-79
2021/03/23 06:41:35;;;;;;;24.57;20.03;;;8.00;90.60;;;;;;10547246;28;20208;-79
2021/03/23 06:46:42;;;;;;;27.47;21.00;;;8.00;90.50;;;;;;10547213;28;20220;-78
2021/03/23 06:52:02;;;;;;;30.57;21.60;;;8.10;90.60;;;;;;10547012;28;20184;-78
2021/03/23 06:57:15;;;;;;;27.43;21.40;;;8.10;90.50;;;;;;10546454;28;20600;-79
2021/03/23 07:02:29;;;;;;;29.33;21.17;;;8.20;90.50;;;;;;10537881;28;20228;-78
2021/03/23 07:07:31;;;;;;;28.50;21.73;;;8.30;90.60;;;;;;10536512;28;20220;-81
2021/03/23 07:12:39;;;;;;;29.37;21.40;;;8.30;90.20;;;;;;10518805;28;20234;-78
2021/03/23 07:17:44;;;;;;;29.50;21.73;;;8.40;90.30;;;;;;10540603;28;20356;-79
2021/03/23 07:22:50;;;;;;;28.13;20.90;;;8.40;90.30;;;;;;10557079;28;20220;-79
2021/03/23 07:28:20;;;;;;;32.10;20.57;;;8.50;90.30;;;;;;10540302;28;20227;-79
2021/03/23 07:33:37;;;;;;;27.80;21.13;;;8.50;90.10;;;;;;10537871;28;20196;-79
2021/03/23 07:38:43;;;;;;;31.20;21.23;;;8.60;90.20;;;;;;10533679;28;20297;-78
2021/03/23 07:43:50;;;;;;;29.50;21.73;;;8.70;89.80;;;;;;10521311;28;20227;-78
2021/03/23 07:48:59;;;;;;;31.53;23.00;;;8.70;89.90;;;;;;10538179;28;20283;-79
2021/03/23 07:54:18;;;;;;;28.80;21.60;;;8.80;88.90;;;;;;10525679;28;20220;-78
2021/03/23 07:59:31;;;;;;;28.73;19.93;;;8.80;89.80;;;;;;10506842;28;20199;-79
2021/03/23 08:04:50;;;;;;;30.10;20.53;;;8.90;89.50;;;;;;10523140;28;20224;-78
2021/03/23 08:10:13;;;;;;;26.93;20.60;;;9.00;88.60;;;;;;10532353;28;20188;-79
2021/03/23 08:15:33;;;;;;;27.10;20.47;;;9.10;88.00;;;;;;10532853;28;20226;-79
2021/03/23 08:20:55;;;;;;;29.13;19.97;;;9.20;88.70;;;;;;10515290;28;20212;-78
2021/03/23 08:26:06;;;;;;;25.43;19.23;;;9.30;88.60;;;;;;10524162;28;20224;-79
2021/03/23 08:31:42;;;;;;;27.83;20.73;;;9.40;87.90;;;;;;10521622;28;20597;-79
2021/03/23 08:37:06;;;;;;;24.93;19.20;;;9.60;87.80;;;;;;10499748;28;20524;-79
2021/03/23 08:42:12;;;;;;;26.47;19.73;;;9.70;87.20;;;;;;10524028;28;20217;-79
2021/03/23 08:47:26;;;;;;;27.97;20.50;;;9.80;86.40;;;;;;10536685;28;20223;-79
2021/03/23 08:52:38;;;;;;;23.70;18.80;;;9.90;85.80;;;;;;10537394;28;20703;-79
2021/03/23 08:57:49;;;;;;;23.97;19.70;;;9.90;85.30;;;;;;10519042;28;20231;-79
2021/03/23 09:02:51;;;;;;;22.83;17.80;;;10.00;85.70;;;;;;10504612;28;20215;-79
2021/03/23 09:08:34;;;;;;;26.40;18.07;;;10.10;84.60;;;;;;10514739;28;20215;-81
2021/03/23 09:14:17;;;;;;;23.40;16.40;;;10.30;83.20;;;;;;10512765;28;20309;-80
2021/03/23 09:19:39;;;;;;;24.87;17.93;;;10.50;82.90;;;;;;10524470;28;20195;-80
2021/03/23 09:24:43;;;;;;;20.97;14.53;;;10.60;82.10;;;;;;10521748;28;20737;-80
2021/03/23 09:29:47;;;;;;;18.97;14.50;;;10.70;82.70;;;;;;10519706;28;20196;-80
2021/03/23 09:35:14;;;;;;;13.93;10.20;;;10.90;80.60;;;;;;10520725;28;20207;-79
2021/03/23 09:40:55;;;;;;;14.60;9.60;;;11.10;78.00;;;;;;10520688;28;20220;-79
2021/03/23 09:46:00;;;;;;;11.97;9.40;;;11.20;76.40;;;;;;10521657;28;20714;-79
2021/03/23 09:51:08;;;;;;;13.03;7.87;;;11.30;74.50;;;;;;10537419;28;20210;-79
2021/03/23 09:56:13;;;;;;;12.33;8.40;;;11.50;73.10;;;;;;10537584;28;20302;-79
2021/03/23 10:01:18;;;;;;;11.30;8.50;;;11.60;74.10;;;;;;10535002;28;20693;-79
2021/03/23 10:06:24;;;;;;;12.57;8.77;;;11.90;73.40;;;;;;10534859;28;20220;-80
2021/03/23 10:11:28;;;;;;;11.50;7.70;;;11.90;71.20;;;;;;10536609;28;20283;-79
2021/03/23 10:16:33;;;;;;;7.27;5.93;;;11.90;71.20;;;;;;10535565;28;20251;-79
2021/03/23 10:21:38;;;;;;;7.80;6.50;;;11.70;69.70;;;;;;10524067;28;20220;-79
2021/03/23 10:26:42;;;;;;;5.30;4.80;;;11.50;69.00;;;;;;10520948;28;20235;-79
2021/03/23 10:31:49;;;;;;;6.67;5.97;;;11.40;69.60;;;;;;10525324;28;20192;-79
2021/03/23 10:36:53;;;;;;;7.90;6.83;;;11.40;69.80;;;;;;10525564;28;20248;-79
2021/03/23 10:41:55;;;;;;;8.27;6.80;;;11.30;68.80;;;;;;10520151;28;20223;-79
2021/03/23 10:46:58;;;;;;;8.23;7.00;;;11.10;69.40;;;;;;10512967;28;20211;-79
2021/03/23 10:52:04;;;;;;;6.77;5.67;;;11.00;71.50;;;;;;10520782;28;20188;-79
2021/03/23 10:57:25;;;;;;;7.50;6.37;;;10.90;71.00;;;;;;10516403;28;20216;-79
2021/03/23 11:02:31;;;;;;;9.17;6.70;;;10.90;70.70;;;;;;10521357;28;20289;-79
2021/03/23 11:07:35;;;;;;;9.03;7.83;;;10.90;69.20;;;;;;10521291;28;20212;-79
2021/03/23 11:12:37;;;;;;;10.50;7.63;;;10.80;70.50;;;;;;10537807;28;20191;-79
2021/03/23 11:17:46;;;;;;;8.17;7.33;;;10.90;71.00;;;;;;10542434;28;20216;-79
2021/03/23 11:22:50;;;;;;;8.30;6.63;;;10.90;70.10;;;;;;10518964;28;21081;-79
2021/03/23 11:27:52;;;;;;;8.70;6.57;;;11.00;69.70;;;;;;10517097;28;20258;-79
2021/03/23 11:32:53;;;;;;;6.83;6.13;;;11.10;69.10;;;;;;10519465;28;20200;-79
2021/03/23 11:37:56;;;;;;;7.20;6.37;;;11.10;68.80;;;;;;10521038;28;20240;-79
2021/03/23 11:42:58;;;;;;;7.07;6.00;;;11.10;67.40;;;;;;10519112;28;20243;-79
2021/03/23 11:48:06;;;;;;;7.10;6.03;;;11.10;67.90;;;;;;10513643;28;20749;-79
2021/03/23 11:53:09;;;;;;;7.30;6.60;;;11.20;65.90;;;;;;10525190;28;20183;-79
2021/03/23 11:58:12;;;;;;;9.40;8.17;;;11.10;67.40;;;;;;10521970;28;20733;-79
2021/03/23 12:03:16;;;;;;;9.83;7.47;;;11.00;67.90;;;;;;10529683;28;20220;-79
2021/03/23 12:08:30;;;;;;;11.70;9.73;;;11.00;70.00;;;;;;10521904;28;20273;-78
2021/03/23 12:13:42;;;;;;;9.13;8.10;;;11.00;70.00;;;;;;10537523;28;20597;-79
2021/03/23 12:18:53;;;;;;;11.20;8.10;;;11.00;69.40;;;;;;10538568;28;20577;-79
2021/03/23 12:23:56;;;;;;;9.77;8.77;;;11.10;70.00;;;;;;10537947;28;20693;-79
2021/03/23 12:28:58;;;;;;;11.00;8.80;;;11.20;69.40;;;;;;10537015;28;20291;-78
2021/03/23 12:34:01;;;;;;;9.70;8.70;;;11.30;69.20;;;;;;10538318;28;20215;-78
2021/03/23 12:39:04;;;;;;;10.97;8.90;;;11.40;70.20;;;;;;10531133;28;20195;-79
2021/03/23 12:44:07;;;;;;;11.37;9.67;;;11.30;69.10;;;;;;10520107;28;20298;-79
2021/03/23 12:49:09;;;;;;;9.47;8.40;;;11.30;69.20;;;;;;10520256;28;20286;-79
2021/03/23 12:54:17;;;;;;;10.13;7.80;;;11.30;68.70;;;;;;10539349;28;20703;-79
2021/03/23 12:59:25;;;;;;;9.63;7.60;;;11.20;69.10;;;;;;10538134;28;20200;-79
2021/03/23 13:04:27;;;;;;;10.80;9.33;;;11.20;69.10;;;;;;10537000;28;20770;-79
2021/03/23 13:09:34;;;;;;;9.83;7.50;;;11.30;69.50;;;;;;10532841;28;20196;-79
2021/03/23 13:14:36;;;;;;;9.10;7.80;;;11.20;68.90;;;;;;10537814;28;20302;-78
2021/03/23 13:19:37;;;;;;;10.20;8.90;;;11.20;69.50;;;;;;10525397;28;20192;-78
2021/03/23 13:24:42;;;;;;;9.23;7.87;;;11.20;69.40;;;;;;10514866;28;20591;-78
2021/03/23 13:29:44;;;;;;;9.70;8.03;;;11.30;69.80;;;;;;10516326;28;20232;-78
2021/03/23 13:34:46;;;;;;;10.57;8.23;;;11.30;69.30;;;;;;10504668;28;20220;-79
2021/03/23 13:39:52;;;;;;;9.17;7.10;;;11.50;70.40;;;;;;10501930;28;20200;-79
2021/03/23 13:44:59;;;;;;;8.93;7.47;;;11.50;68.80;;;;;;10489994;28;20730;-79
2021/03/23 13:50:01;;;;;;;9.40;7.27;;;11.60;68.80;;;;;;10502583;28;20656;-79
2021/03/23 13:55:15;;;;;;;9.90;8.63;;;11.60;67.10;;;;;;10494139;28;20223;-79
2021/03/23 14:00:19;;;;;;;9.13;8.07;;;11.50;66.20;;;;;;10507123;28;20258;-79
2021/03/23 14:05:21;;;;;;;13.30;8.47;;;11.40;66.90;;;;;;10513603;28;20230;-78
2021/03/23 14:10:26;;;;;;;9.93;8.40;;;11.30;66.40;;;;;;10488668;28;20207;-79
2021/03/23 14:15:30;;;;;;;11.57;8.40;;;11.20;67.40;;;;;;10496130;28;20254;-78
2021/03/23 14:20:33;;;;;;;10.40;8.80;;;11.10;66.70;;;;;;10505439;28;20775;-79
2021/03/23 14:25:39;;;;;;;10.83;8.87;;;11.00;66.90;;;;;;10510317;28;20306;-78
2021/03/23 14:30:41;;;;;;;10.20;8.20;;;11.00;69.30;;;;;;10509920;28;20196;-78
2021/03/23 14:35:43;;;;;;;9.70;8.27;;;11.00;69.30;;;;;;10511618;28;20224;-78
2021/03/23 14:40:46;;;;;;;10.63;8.63;;;11.10;67.20;;;;;;10510656;28;20207;-78
2021/03/23 14:45:50;;;;;;;10.73;8.70;;;11.00;67.70;;;;;;10511130;28;20224;-78
2021/03/23 14:50:51;;;;;;;12.30;8.87;;;11.00;67.80;;;;;;10522039;28;20672;-78
2021/03/23 14:55:54;;;;;;;11.40;8.50;;;11.00;67.20;;;;;;10539996;28;20211;-78
2021/03/23 15:00:56;;;;;;;10.40;8.50;;;11.00;67.50;;;;;;10534505;28;20277;-78
2021/03/23 15:05:58;;;;;;;9.70;8.70;;;11.00;67.60;;;;;;10534226;28;20304;-78
2021/03/23 15:11:03;;;;;;;10.80;8.20;;;10.90;67.30;;;;;;10525135;28;20739;-78
2021/03/23 15:16:06;;;;;;;7.50;6.70;;;10.80;68.20;;;;;;10515349;28;20722;-78
2021/03/23 15:21:09;;;;;;;11.63;8.60;;;10.80;70.30;;;;;;10522190;28;20239;-78
2021/03/23 15:26:20;;;;;;;10.30;8.90;;;10.80;68.10;;;;;;10517748;28;20227;-78
2021/03/23 15:31:22;;;;;;;12.70;8.93;;;10.80;71.10;;;;;;10516496;28;20203;-78
2021/03/23 15:36:28;;;;;;;10.53;9.37;;;10.80;71.30;;;;;;10518558;28;20736;-78
2021/03/23 15:41:30;;;;;;;11.90;9.30;;;10.80;69.80;;;;;;10493618;28;20685;-78
2021/03/23 15:46:32;;;;;;;13.73;10.33;;;10.70;69.20;;;;;;10513339;28;20886;-78
2021/03/23 15:51:35;;;;;;;10.37;8.53;;;10.70;69.30;;;;;;10513282;28;20188;-78
2021/03/23 15:56:41;;;;;;;10.00;8.47;;;10.70;68.60;;;;;;10512283;28;20299;-78
2021/03/23 16:01:43;;;;;;;11.10;9.33;;;10.60;70.40;;;;;;10517888;28;20272;-78
2021/03/23 16:06:45;;;;;;;12.53;8.87;;;10.50;69.80;;;;;;10511125;28;20299;-78
2021/03/23 16:11:47;;;;;;;12.60;9.63;;;10.50;70.90;;;;;;10512128;28;20200;-78
2021/03/23 16:16:49;;;;;;;10.63;9.17;;;10.50;70.60;;;;;;10511032;28;20208;-78
2021/03/23 16:21:53;;;;;;;11.87;9.90;;;10.50;71.10;;;;;;10510995;28;20225;-78
2021/03/23 16:26:55;;;;;;;10.60;8.80;;;10.50;69.10;;;;;;10509283;28;20561;-78
2021/03/23 16:31:57;;;;;;;10.73;9.67;;;10.40;69.10;;;;;;10514485;28;20287;-78
2021/03/23 16:37:01;;;;;;;9.87;8.80;;;10.40;69.20;;;;;;10509672;28;20223;-78
2021/03/23 16:42:05;;;;;;;10.97;8.77;;;10.30;72.50;;;;;;10516083;28;20230;-78
2021/03/23 16:47:07;;;;;;;10.30;8.10;;;10.30;73.10;;;;;;10510167;28;20262;-78
2021/03/23 16:52:09;;;;;;;14.60;9.20;;;10.30;73.20;;;;;;10510699;28;20647;-78
2021/03/23 16:57:17;;;;;;;14.97;11.03;;;10.30;73.40;;;;;;10508071;28;20224;-78
2021/03/23 17:02:23;;;;;;;11.33;9.40;;;10.30;72.30;;;;;;10531047;28;20208;-79
2021/03/23 17:07:24;;;;;;;12.30;9.83;;;10.20;72.00;;;;;;10529973;28;20630;-78
2021/03/23 17:12:27;;;;;;;11.33;8.80;;;10.20;73.30;;;;;;10529132;28;20195;-78
2021/03/23 17:17:30;;;;;;;10.40;8.73;;;10.20;71.80;;;;;;10514553;28;20640;-78
2021/03/23 17:22:32;;;;;;;11.00;9.40;;;10.10;72.20;;;;;;10511191;28;20759;-78
2021/03/23 17:27:35;;;;;;;10.77;9.33;;;10.10;72.50;;;;;;10508428;28;20702;-78
2021/03/23 17:32:36;;;;;;;11.33;8.43;;;10.10;74.30;;;;;;10507897;28;20696;-78
2021/03/23 17:37:38;;;;;;;9.40;8.50;;;10.10;75.30;;;;;;10505077;28;20747;-78
2021/03/23 17:42:41;;;;;;;14.77;8.37;;;10.00;74.70;;;;;;10506410;28;20688;-78
2021/03/23 17:47:42;;;;;;;11.73;9.10;;;9.90;76.10;;;;;;10505765;28;20231;-78
2021/03/23 17:52:44;;;;;;;11.27;9.10;;;9.80;74.20;;;;;;10520147;28;20573;-78
2021/03/23 17:57:48;;;;;;;10.27;8.80;;;9.80;74.40;;;;;;10526003;28;20243;-79
2021/03/23 18:02:50;;;;;;;10.73;9.10;;;9.80;76.00;;;;;;10508485;28;20622;-79
2021/03/23 18:07:52;;;;;;;15.40;8.30;;;9.70;76.40;;;;;;10514439;28;20728;-76
2021/03/23 18:12:55;;;;;;;8.50;7.60;;;9.60;76.40;;;;;;10520886;28;20693;-76
2021/03/23 18:17:58;;;;;;;10.93;8.50;;;9.50;76.80;;;;;;10508801;28;20252;-76
2021/03/23 18:22:59;;;;;;;12.10;10.00;;;9.40;77.10;;;;;;10522220;28;20220;-76
2021/03/23 18:28:03;;;;;;;13.10;10.10;;;9.30;77.30;;;;;;10527157;28;20221;-76
2021/03/23 18:33:08;;;;;;;8.80;8.00;;;9.10;77.50;;;;;;10514858;28;20211;-76
2021/03/23 18:38:10;;;;;;;11.80;9.90;;;9.00;78.40;;;;;;10541421;28;20235;-76
2021/03/23 18:43:14;;;;;;;12.27;9.77;;;8.80;78.30;;;;;;10540979;28;20679;-76
2021/03/23 18:48:16;;;;;;;12.30;10.50;;;8.70;78.80;;;;;;10541957;28;20223;-75
2021/03/23 18:53:18;;;;;;;13.73;11.00;;;8.40;79.10;;;;;;10541671;28;20199;-76
2021/03/23 18:58:20;;;;;;;11.53;10.30;;;8.30;79.10;;;;;;10540563;28;20227;-76
2021/03/23 19:03:26;;;;;;;13.57;11.77;;;8.10;79.10;;;;;;10529447;28;20298;-75
2021/03/23 19:08:28;;;;;;;11.20;9.83;;;7.90;79.40;;;;;;10517926;28;20200;-76
2021/03/23 19:13:31;;;;;;;14.63;12.27;;;7.80;79.90;;;;;;10530204;28;20196;-76
2021/03/23 19:18:32;;;;;;;12.43;10.93;;;7.60;80.00;;;;;;10516214;28;20201;-76
2021/03/23 19:23:35;;;;;;;16.63;12.27;;;7.50;80.20;;;;;;10520087;28;20219;-75
2021/03/23 19:28:37;;;;;;;13.00;10.93;;;7.40;80.50;;;;;;10528895;28;20195;-76
2021/03/23 19:33:40;;;;;;;14.40;12.90;;;7.20;80.50;;;;;;10527159;28;20628;-76
2021/03/23 19:38:42;;;;;;;17.23;12.20;;;7.10;81.20;;;;;;10518926;28;20207;-76
2021/03/23 19:43:48;;;;;;;14.13;12.60;;;7.00;81.50;;;;;;10526504;28;20256;-76
2021/03/23 19:48:51;;;;;;;14.77;12.10;;;7.00;81.80;;;;;;10530364;28;20199;-75
2021/03/23 19:53:53;;;;;;;13.50;11.90;;;6.90;82.20;;;;;;10529075;28;20243;-76
2021/03/23 19:58:56;;;;;;;13.90;12.50;;;6.80;82.10;;;;;;10528120;28;20236;-76
2021/03/23 20:03:58;;;;;;;16.93;12.43;;;6.70;83.10;;;;;;10510585;28;20234;-76
2021/03/23 20:08:59;;;;;;;17.00;15.20;;;6.70;83.00;;;;;;10527130;28;20203;-76
2021/03/23 20:14:02;;;;;;;15.30;12.93;;;6.70;83.30;;;;;;10530758;28;20212;-76
2021/03/23 20:19:04;;;;;;;18.27;13.97;;;6.60;83.60;;;;;;10521514;28;20212;-75
2021/03/23 20:24:07;;;;;;;17.10;14.20;;;6.60;83.70;;;;;;10536968;22;20223;-76
2021/03/23 20:29:09;;;;;;;17.20;14.97;;;6.50;84.20;;;;;;10525630;28;20278;-76
2021/03/23 20:34:11;;;;;;;16.93;14.20;;;6.50;84.30;;;;;;10509358;28;20289;-77
2021/03/23 20:39:13;;;;;;;17.50;15.20;;;6.40;84.40;;;;;;10512881;28;20554;-77
2021/03/23 20:44:15;;;;;;;19.07;14.67;;;6.40;84.90;;;;;;10510987;28;20232;-77
2021/03/23 20:49:17;;;;;;;16.90;15.10;;;6.40;84.70;;;;;;10511667;28;20230;-77
2021/03/23 20:54:19;;;;;;;19.50;16.40;;;6.40;85.10;;;;;;10513308;28;20268;-77
2021/03/23 20:59:22;;;;;;;23.90;18.60;;;6.30;85.40;;;;;;10500236;28;20488;-77
2021/03/23 21:04:24;;;;;;;20.50;17.20;;;6.30;85.80;;;;;;10511194;28;20222;-77
2021/03/23 21:09:26;;;;;;;21.80;16.47;;;6.30;86.10;;;;;;10508949;28;20299;-77
2021/03/23 21:14:28;;;;;;;23.67;17.03;;;6.20;86.30;;;;;;10512765;28;20856;-77
2021/03/23 21:19:30;;;;;;;22.83;16.93;;;6.20;86.70;;;;;;10510260;28;20196;-77
2021/03/23 21:24:32;;;;;;;19.17;16.67;;;6.20;87.00;;;;;;10510224;28;20228;-77
2021/03/23 21:29:38;;;;;;;26.17;18.20;;;6.10;87.20;;;;;;10526405;28;20208;-77
2021/03/23 21:34:42;;;;;;;22.10;17.97;;;6.10;87.30;;;;;;10547744;28;20238;-77
2021/03/23 21:39:49;;;;;;;23.13;17.10;;;6.00;87.50;;;;;;10534994;28;20275;-77
2021/03/23 21:44:59;;;;;;;25.70;20.03;;;6.00;87.90;;;;;;10553490;28;20242;-77
2021/03/23 21:50:05;;;;;;;27.03;18.97;;;5.90;88.20;;;;;;10574309;28;20275;-77
2021/03/23 21:55:08;;;;;;;27.80;19.30;;;5.90;88.00;;;;;;10575308;28;20741;-77
2021/03/23 22:00:17;;;;;;;24.30;18.90;;;5.90;88.50;;;;;;10558120;28;20195;-77
2021/03/23 22:05:19;;;;;;;24.43;19.20;;;5.80;88.40;;;;;;10538561;28;20283;-77
2021/03/23 22:10:30;;;;;;;23.03;18.53;;;5.80;88.40;;;;;;10536437;28;20257;-76
2021/03/23 22:15:32;;;;;;;23.50;17.83;;;5.70;88.70;;;;;;10533192;28;20219;-77
2021/03/23 22:20:39;;;;;;;26.27;20.50;;;5.70;89.20;;;;;;10533708;28;20200;-77
2021/03/23 22:25:40;;;;;;;23.63;19.30;;;5.70;89.40;;;;;;10529841;28;20235;-77
2021/03/23 22:30:45;;;;;;;27.57;19.90;;;5.70;89.50;;;;;;10537908;28;20261;-77
2021/03/23 22:35:47;;;;;;;25.53;18.33;;;5.70;89.40;;;;;;10533971;28;20215;-77
2021/03/23 22:40:52;;;;;;;23.57;18.80;;;5.70;89.40;;;;;;10519370;28;20213;-78
2021/03/23 22:45:55;;;;;;;24.93;19.60;;;5.60;89.40;;;;;;10531936;28;20279;-77
2021/03/23 22:50:59;;;;;;;24.77;18.67;;;5.60;89.60;;;;;;10531020;28;20237;-77
2021/03/23 22:56:00;;;;;;;24.83;19.70;;;5.60;89.70;;;;;;10512411;28;20306;-77
2021/03/23 23:01:05;;;;;;;22.90;17.90;;;5.60;89.70;;;;;;10528965;28;20219;-77
2021/03/23 23:06:18;;;;;;;22.73;18.57;;;5.50;89.70;;;;;;10531199;28;20220;-78
2021/03/23 23:11:24;;;;;;;23.00;18.43;;;5.50;89.00;;;;;;10572318;28;20203;-77
2021/03/23 23:16:28;;;;;;;25.93;18.90;;;5.40;89.00;;;;;;10571854;28;20301;-77
2021/03/23 23:21:36;;;;;;;21.43;18.07;;;5.30;89.70;;;;;;10540348;28;20215;-77
2021/03/23 23:26:37;;;;;;;19.30;16.00;;;5.30;89.50;;;;;;10534136;28;20316;-77
2021/03/23 23:31:40;;;;;;;19.73;16.07;;;5.20;89.80;;;;;;10548096;28;20664;-77
2021/03/23 23:36:44;;;;;;;20.03;16.33;;;5.10;89.80;;;;;;10540743;28;20223;-78
2021/03/23 23:41:50;;;;;;;21.97;16.57;;;5.10;90.00;;;;;;10561500;28;20264;-78
2021/03/23 23:46:52;;;;;;;20.40;16.10;;;5.10;89.80;;;;;;10585735;28;20215;-77
2021/03/23 23:51:55;;;;;;;24.13;17.43;;;5.10;89.80;;;;;;10585840;28;20195;-77
2021/03/23 23:56:57;;;;;;;20.83;15.57;;;5.10;90.00;;;;;;10562391;28;20250;-77
